createdAt,value
2018-07-21T00:01:07.141Z,40.30
2018-07-21T00:06:10.248Z,40.60
2018-07-21T00:11:13.412Z,40.30
2018-07-21T00:16:16.527Z,40.90
2018-07-21T00:21:19.628Z,41.00
2018-07-21T00:26:22.736Z,41.00
2018-07-21T00:31:25.845Z,40.80
2018-07-21T00:36:28.959Z,40.90
2018-07-21T00:41:32.094Z,41.20
2018-07-21T00:46:35.191Z,41.30
2018-07-21T00:51:38.283Z,41.40
2018-07-21T00:56:41.380Z,41.20
2018-07-21T01:01:44.493Z,41.40
2018-07-21T01:06:47.600Z,41.70
2018-07-21T01:11:50.712Z,42.50
2018-07-21T01:16:53.813Z,42.20
2018-07-21T01:21:56.900Z,42.40
2018-07-21T01:26:59.991Z,42.20
2018-07-21T01:32:03.175Z,42.30
2018-07-21T01:37:06.276Z,42.40
2018-07-21T01:42:09.387Z,42.50
2018-07-21T01:47:12.539Z,42.70
2018-07-21T01:57:18.539Z,42.80
2018-07-21T02:02:21.643Z,42.30
2018-07-21T02:07:24.764Z,42.50
2018-07-21T02:12:27.838Z,42.80
2018-07-21T02:17:30.952Z,43.10
2018-07-21T02:22:34.102Z,42.80
2018-07-21T02:27:37.199Z,42.70
2018-07-21T02:32:40.287Z,43.00
2018-07-21T02:37:43.372Z,43.90
2018-07-21T02:42:46.484Z,43.50
2018-07-21T02:47:49.616Z,43.70
2018-07-21T02:52:52.731Z,43.30
2018-07-21T02:57:55.811Z,43.70
2018-07-21T03:08:01.791Z,43.60
2018-07-21T03:13:04.962Z,43.60
2018-07-21T03:18:08.172Z,43.80
2018-07-21T03:23:11.439Z,44.00
2018-07-21T03:28:14.580Z,44.00
2018-07-21T03:33:17.661Z,44.20
2018-07-21T03:38:20.764Z,44.30
2018-07-21T03:43:23.903Z,44.40
2018-07-21T03:48:27.007Z,44.80
2018-07-21T03:53:30.118Z,44.90
2018-07-21T03:58:33.331Z,44.80
2018-07-21T04:03:36.416Z,45.00
2018-07-21T04:08:39.520Z,45.00
2018-07-21T04:13:42.636Z,45.10
2018-07-21T04:18:45.743Z,45.30
2018-07-21T04:23:48.848Z,45.60
2018-07-21T04:28:51.943Z,45.60
2018-07-21T04:33:55.335Z,45.70
2018-07-21T04:38:58.434Z,45.70
2018-07-21T04:44:01.531Z,45.70
2018-07-21T04:49:04.801Z,45.60
2018-07-21T04:54:07.884Z,45.50
2018-07-21T05:04:13.939Z,46.00
2018-07-21T05:09:17.056Z,46.40
2018-07-21T05:14:20.151Z,46.10
2018-07-21T05:19:23.259Z,45.80
2018-07-21T05:24:26.368Z,46.30
2018-07-21T05:29:29.448Z,45.90
2018-07-21T05:34:32.559Z,45.90
2018-07-21T05:39:35.656Z,46.10
2018-07-21T05:44:38.768Z,45.80
2018-07-21T05:49:41.856Z,46.40
2018-07-21T05:54:44.943Z,46.70
2018-07-21T05:59:48.052Z,46.20
2018-07-21T06:04:51.151Z,46.50
2018-07-21T06:09:54.251Z,46.40
2018-07-21T06:14:57.359Z,46.20
2018-07-21T06:20:00.631Z,46.20
2018-07-21T06:25:03.993Z,45.90
2018-07-21T06:30:07.188Z,46.30
2018-07-21T06:35:10.363Z,46.10
2018-07-21T06:40:13.472Z,45.80
2018-07-21T06:45:16.591Z,46.20
2018-07-21T06:50:19.772Z,45.90
2018-07-21T06:55:22.905Z,46.30
2018-07-21T07:00:26.004Z,45.10
2018-07-21T07:05:29.180Z,44.80
2018-07-21T07:10:32.279Z,44.70
2018-07-21T07:20:38.276Z,44.70
2018-07-21T07:25:41.384Z,44.70
2018-07-21T07:30:44.489Z,44.20
2018-07-21T07:35:47.597Z,43.60
2018-07-21T07:40:50.744Z,43.90
2018-07-21T07:45:53.832Z,43.70
2018-07-21T07:50:56.970Z,43.40
2018-07-21T07:56:00.073Z,43.40
2018-07-21T08:01:03.161Z,43.40
2018-07-21T08:11:09.252Z,42.20
2018-07-21T08:16:12.340Z,41.60
2018-07-21T08:21:15.454Z,41.70
2018-07-21T08:26:18.582Z,41.70
2018-07-21T08:31:21.703Z,41.60
2018-07-21T08:36:24.819Z,40.30
2018-07-21T08:41:27.904Z,40.50
2018-07-21T08:46:31.026Z,40.70
2018-07-21T08:51:34.147Z,39.30
2018-07-21T08:56:37.257Z,39.80
2018-07-21T09:01:46.869Z,39.50
2018-07-21T09:06:50.011Z,38.10
2018-07-21T09:16:56.097Z,37.40
2018-07-21T09:21:59.203Z,36.70
2018-07-21T09:32:05.291Z,36.40
2018-07-21T09:37:08.456Z,36.50
2018-07-21T09:42:11.544Z,35.90
2018-07-21T09:47:14.639Z,35.60
2018-07-21T09:57:20.645Z,34.50
2018-07-21T10:02:23.756Z,34.00
2018-07-21T10:07:26.870Z,34.20
2018-07-21T10:12:29.955Z,34.80
2018-07-21T10:17:33.127Z,34.60
2018-07-21T10:22:36.252Z,34.40
2018-07-21T10:27:44.692Z,34.80
2018-07-21T10:32:47.831Z,34.70
2018-07-21T10:37:50.948Z,35.60
2018-07-21T10:42:54.066Z,34.20
2018-07-21T10:47:57.175Z,34.60
2018-07-21T10:53:00.287Z,34.30
2018-07-21T10:58:03.379Z,34.80
2018-07-21T11:03:06.529Z,34.10
2018-07-21T11:08:09.647Z,34.30
2018-07-21T11:13:12.715Z,34.60
2018-07-21T11:18:15.837Z,34.40
2018-07-21T11:23:18.944Z,34.00
2018-07-21T11:28:22.129Z,34.50
2018-07-21T11:33:25.243Z,34.20
2018-07-21T11:38:28.332Z,34.20
2018-07-21T11:43:31.434Z,34.10
2018-07-21T11:48:34.547Z,33.00
2018-07-21T11:53:37.644Z,33.30
2018-07-21T11:58:40.748Z,33.60
2018-07-21T12:03:43.841Z,33.40
2018-07-21T12:13:49.828Z,32.80
2018-07-21T12:18:52.939Z,32.50
2018-07-21T12:23:56.084Z,32.10
2018-07-21T12:28:59.201Z,32.80
2018-07-21T12:34:02.307Z,32.90
2018-07-21T12:39:07.244Z,31.90
2018-07-21T12:44:10.356Z,32.20
2018-07-21T12:49:13.488Z,32.10
2018-07-21T12:54:16.603Z,31.40
2018-07-21T12:59:19.783Z,31.80
2018-07-21T13:04:22.899Z,31.50
2018-07-21T13:09:26.007Z,32.20
2018-07-21T13:14:29.111Z,31.20
2018-07-21T13:19:32.256Z,31.50
2018-07-21T13:24:35.347Z,32.40
2018-07-21T13:29:38.430Z,31.60
2018-07-21T13:34:41.515Z,33.00
2018-07-21T13:39:44.616Z,32.10
2018-07-21T13:44:47.736Z,32.40
2018-07-21T13:49:50.963Z,32.50
2018-07-21T13:54:54.055Z,32.30
2018-07-21T13:59:57.146Z,32.60
2018-07-21T14:05:00.337Z,32.30
2018-07-21T14:10:03.463Z,32.00
2018-07-21T14:15:06.632Z,32.60
2018-07-21T14:20:09.732Z,33.60
2018-07-21T14:25:12.856Z,32.60
2018-07-21T14:30:15.972Z,32.50
2018-07-21T14:35:19.081Z,32.50
2018-07-21T14:40:22.200Z,32.70
2018-07-21T14:45:25.474Z,32.40
2018-07-21T14:50:28.575Z,32.40
2018-07-21T14:55:38.037Z,32.50
2018-07-21T15:00:41.139Z,32.80
2018-07-21T15:05:44.337Z,32.70
2018-07-21T15:10:47.551Z,32.60
2018-07-21T15:15:50.715Z,32.60
2018-07-21T15:25:56.781Z,33.30
2018-07-21T15:30:59.856Z,33.50
2018-07-21T15:36:03.077Z,33.60
2018-07-21T15:41:06.919Z,33.30
2018-07-21T15:46:10.461Z,33.30
2018-07-21T15:51:14.384Z,33.20
2018-07-21T15:56:17.552Z,33.10
2018-07-21T16:01:20.765Z,33.50
2018-07-21T16:06:23.860Z,33.90
2018-07-21T16:11:27.007Z,34.10
2018-07-21T16:16:30.181Z,34.30
2018-07-21T16:21:33.285Z,34.70
2018-07-21T16:26:36.392Z,34.70
2018-07-21T16:31:39.647Z,34.80
2018-07-21T16:36:42.847Z,35.00
2018-07-21T16:41:45.995Z,35.20
2018-07-21T16:46:49.124Z,34.90
2018-07-21T16:51:52.322Z,35.00
2018-07-21T16:56:55.559Z,35.10
2018-07-21T17:01:58.684Z,35.20
2018-07-21T17:07:01.863Z,35.20
2018-07-21T17:12:04.980Z,35.50
2018-07-21T17:17:08.088Z,35.50
2018-07-21T17:22:11.264Z,35.40
2018-07-21T17:27:14.394Z,35.50
2018-07-21T17:32:17.496Z,35.50
2018-07-21T17:37:20.725Z,35.50
2018-07-21T17:42:23.915Z,35.60
2018-07-21T17:47:27.047Z,35.50
2018-07-21T17:52:30.263Z,35.80
2018-07-21T17:57:33.356Z,35.80
2018-07-21T18:02:36.506Z,35.90
2018-07-21T18:07:39.640Z,35.90
2018-07-21T18:12:42.739Z,35.90
2018-07-21T18:17:45.872Z,36.20
2018-07-21T18:22:49.010Z,36.30
2018-07-21T18:27:52.248Z,36.40
2018-07-21T18:32:55.395Z,36.40
2018-07-21T18:37:58.560Z,36.60
2018-07-21T18:48:04.540Z,36.30
2018-07-21T18:53:07.656Z,37.00
2018-07-21T18:58:10.772Z,37.10
2018-07-21T19:03:13.961Z,37.20
2018-07-21T19:08:22.080Z,37.40
2018-07-21T19:13:25.164Z,37.50
2018-07-21T19:18:29.547Z,37.70
2018-07-21T19:23:32.674Z,38.40
2018-07-21T19:28:35.768Z,37.90
2018-07-21T19:33:38.855Z,38.20
2018-07-21T19:38:42.060Z,38.30
2018-07-21T19:43:45.299Z,38.40
2018-07-21T19:48:48.392Z,38.60
2018-07-21T19:53:51.535Z,39.30
2018-07-21T19:58:54.636Z,38.70
2018-07-21T20:03:57.778Z,38.80
2018-07-21T20:09:00.884Z,39.10
2018-07-21T20:14:03.992Z,39.10
2018-07-21T20:19:07.182Z,39.30
2018-07-21T20:24:10.346Z,39.50
2018-07-21T20:29:13.436Z,39.40
2018-07-21T20:34:16.571Z,39.50
2018-07-21T20:39:19.687Z,39.60
2018-07-21T20:44:22.817Z,39.70
2018-07-21T20:49:25.939Z,40.20
2018-07-21T20:54:29.045Z,40.20
2018-07-21T20:59:32.243Z,40.40
2018-07-21T21:04:35.360Z,40.60
2018-07-21T21:09:38.443Z,40.70
2018-07-21T21:14:41.574Z,41.00
2018-07-21T21:19:44.666Z,40.80
2018-07-21T21:24:47.768Z,41.10
2018-07-21T21:39:56.652Z,41.20
2018-07-21T21:44:59.759Z,41.30
2018-07-21T21:50:02.904Z,42.20
2018-07-21T21:55:06.248Z,41.40
2018-07-21T22:00:10.796Z,41.80
2018-07-21T22:05:13.886Z,41.80
2018-07-21T22:10:17.047Z,42.00
2018-07-21T22:15:22.043Z,41.90
2018-07-21T22:20:25.224Z,41.90
2018-07-21T22:25:28.351Z,41.90
2018-07-21T22:30:31.580Z,41.90
2018-07-21T22:35:34.673Z,42.10
2018-07-21T22:40:37.767Z,42.30
2018-07-21T22:45:40.927Z,42.20
2018-07-21T22:50:44.100Z,42.40
2018-07-21T22:55:47.306Z,42.50
2018-07-21T23:00:50.467Z,42.40
2018-07-21T23:05:53.572Z,42.40
2018-07-21T23:10:56.668Z,42.20
2018-07-21T23:15:59.783Z,42.40
2018-07-21T23:21:02.855Z,42.60
2018-07-21T23:26:05.991Z,42.60
2018-07-21T23:31:09.168Z,42.80
2018-07-21T23:36:12.272Z,42.80
2018-07-21T23:41:15.363Z,42.90
2018-07-21T23:46:18.459Z,42.90
2018-07-21T23:51:21.551Z,42.90
2018-07-21T23:56:24.655Z,43.00
